createdAt,value
2023-04-13T00:01:25.500Z,99346.63
2023-04-13T00:03:53.495Z,99350.16
2023-04-13T00:06:22.903Z,99343.16
2023-04-13T00:08:54.753Z,99331.78
2023-04-13T00:11:22.906Z,99330.00
2023-04-13T00:13:53.418Z,99344.06
2023-04-13T00:16:21.300Z,99346.72
2023-04-13T00:18:49.044Z,99359.91
2023-04-13T00:21:17.379Z,99359.91
2023-04-13T00:23:45.545Z,99364.28
2023-04-13T00:26:13.271Z,99366.06
2023-04-13T00:28:41.217Z,99364.28
2023-04-13T00:31:10.285Z,99365.16
2023-04-13T00:33:38.004Z,99369.56
2023-04-13T00:36:06.327Z,99377.44
2023-04-13T00:38:34.101Z,99392.34
2023-04-13T00:41:02.230Z,99394.09
2023-04-13T00:43:29.943Z,99411.59
2023-04-13T00:45:58.069Z,99385.31
2023-04-13T00:48:27.269Z,99397.59
2023-04-13T00:50:55.291Z,99405.47
2023-04-13T00:53:24.283Z,99406.34
2023-04-13T00:55:53.231Z,99413.34
2023-04-13T00:58:21.406Z,99407.22
2023-04-13T01:00:49.096Z,99409.84
2023-04-13T01:03:17.091Z,99403.72
2023-04-13T01:05:54.488Z,99415.09
2023-04-13T01:08:31.066Z,99415.97
2023-04-13T01:11:05.910Z,99415.09
2023-04-13T01:13:41.207Z,99403.69
2023-04-13T01:16:15.892Z,99408.06
2023-04-13T01:18:47.158Z,99418.56
2023-04-13T01:21:21.735Z,99415.94
2023-04-13T01:24:04.782Z,99415.91
2023-04-13T01:26:39.213Z,99411.50
2023-04-13T01:29:08.598Z,99421.16
2023-04-13T01:31:37.014Z,99422.91
2023-04-13T01:34:04.959Z,99422.03
2023-04-13T01:36:34.246Z,99429.91
2023-04-13T01:39:02.274Z,99433.41
2023-04-13T01:41:32.096Z,99437.78
2023-04-13T01:44:00.085Z,99433.38
2023-04-13T01:46:35.390Z,99436.88
2023-04-13T01:49:11.849Z,99442.13
2023-04-13T01:51:49.459Z,99434.22
2023-04-13T01:54:23.528Z,99435.97
2023-04-13T01:56:51.863Z,99440.34
2023-04-13T01:59:20.188Z,99437.72
2023-04-13T02:01:49.366Z,99429.81
2023-04-13T02:04:17.218Z,99421.06
2023-04-13T02:06:46.609Z,99414.91
2023-04-13T02:09:14.587Z,99414.03
2023-04-13T02:11:44.333Z,99418.38
2023-04-13T02:14:12.244Z,99424.53
2023-04-13T02:16:40.477Z,99430.63
2023-04-13T02:19:09.616Z,99431.50
2023-04-13T02:21:37.393Z,99425.34
2023-04-13T02:24:05.916Z,99426.19
2023-04-13T02:26:33.879Z,99437.56
2023-04-13T02:29:02.147Z,99445.41
2023-04-13T02:31:32.054Z,99434.00
2023-04-13T02:34:00.410Z,99448.00
2023-04-13T02:36:30.520Z,99446.22
2023-04-13T02:39:02.696Z,99449.72
2023-04-13T02:41:33.226Z,99440.94
2023-04-13T02:44:01.666Z,99440.03
2023-04-13T02:46:35.254Z,99443.47
2023-04-13T02:49:11.219Z,99441.72
2023-04-13T02:51:47.341Z,99440.81
2023-04-13T02:54:15.680Z,99445.16
2023-04-13T02:56:47.468Z,99446.00
2023-04-13T02:59:16.509Z,99450.34
2023-04-13T03:01:45.983Z,99447.69
2023-04-13T03:04:15.161Z,99441.53
2023-04-13T03:06:44.257Z,99436.25
2023-04-13T03:09:13.873Z,99432.72
2023-04-13T03:11:47.361Z,99440.56
2023-04-13T03:14:22.144Z,99444.03
2023-04-13T03:16:55.854Z,99444.06
2023-04-13T03:19:28.606Z,99442.31
2023-04-13T03:21:56.338Z,99447.53
2023-04-13T03:24:28.456Z,99458.84
2023-04-13T03:26:59.441Z,99458.84
2023-04-13T03:29:34.415Z,99458.88
2023-04-13T03:32:02.752Z,99456.25
2023-04-13T03:34:34.048Z,99448.41
2023-04-13T03:37:10.565Z,99457.19
2023-04-13T03:39:40.874Z,99455.47
2023-04-13T03:42:12.559Z,99459.88
2023-04-13T03:44:46.684Z,99450.28
2023-04-13T03:47:14.424Z,99442.41
2023-04-13T03:49:42.193Z,99445.91
2023-04-13T03:52:10.895Z,99446.75
2023-04-13T03:54:44.227Z,99453.72
2023-04-13T03:57:12.560Z,99445.84
2023-04-13T03:59:40.299Z,99455.44
2023-04-13T04:02:11.046Z,99449.31
2023-04-13T04:04:43.079Z,99454.53
2023-04-13T04:07:11.144Z,99437.06
2023-04-13T04:09:38.877Z,99433.59
2023-04-13T04:12:08.815Z,99424.84
2023-04-13T04:14:41.207Z,99433.56
2023-04-13T04:17:16.610Z,99432.66
2023-04-13T04:19:44.907Z,99440.50
2023-04-13T04:22:14.052Z,99450.13
2023-04-13T04:24:43.393Z,99454.50
2023-04-13T04:27:14.475Z,99446.59
2023-04-13T04:29:49.128Z,99444.84
2023-04-13T04:32:27.330Z,99444.84
2023-04-13T04:34:56.633Z,99444.00
2023-04-13T04:37:26.173Z,99442.25
2023-04-13T04:40:08.150Z,99454.47
2023-04-13T04:42:38.252Z,99445.75
2023-04-13T04:45:11.617Z,99442.25
2023-04-13T04:47:43.797Z,99444.03
2023-04-13T04:50:18.340Z,99443.19
2023-04-13T04:52:50.544Z,99446.69
2023-04-13T04:55:22.240Z,99457.22
2023-04-13T04:57:51.637Z,99457.25
2023-04-13T05:00:22.098Z,99467.72
2023-04-13T05:03:25.752Z,99463.41
2023-04-13T05:06:04.477Z,99473.94
2023-04-13T05:08:34.005Z,99478.34
2023-04-13T05:11:01.893Z,99488.03
2023-04-13T05:13:31.192Z,99481.06
2023-04-13T05:16:10.773Z,99477.53
2023-04-13T05:18:46.998Z,99491.59
2023-04-13T05:21:30.148Z,99484.56
2023-04-13T05:24:01.089Z,99497.69
2023-04-13T05:28:40.648Z,99499.47
2023-04-13T05:31:11.273Z,99502.94
2023-04-13T05:33:44.182Z,99513.47
2023-04-13T05:36:12.356Z,99519.63
2023-04-13T05:38:41.795Z,99522.28
2023-04-13T05:41:11.825Z,99516.19
2023-04-13T05:43:41.384Z,99525.84
2023-04-13T05:46:12.311Z,99527.63
2023-04-13T05:48:45.835Z,99524.13
2023-04-13T05:51:15.591Z,99537.25
2023-04-13T05:53:45.506Z,99533.81
2023-04-13T05:56:13.402Z,99531.19
2023-04-13T05:58:42.481Z,99532.09
2023-04-13T06:01:19.984Z,99528.59
2023-04-13T06:03:48.176Z,99526.88
2023-04-13T06:06:17.546Z,99531.31
2023-04-13T06:08:46.341Z,99535.72
2023-04-13T06:11:14.384Z,99535.75
2023-04-13T06:13:43.551Z,99532.31
2023-04-13T06:16:11.592Z,99534.97
2023-04-13T06:18:39.658Z,99532.41
2023-04-13T06:21:09.099Z,99529.78
2023-04-13T06:23:37.526Z,99526.31
2023-04-13T06:26:13.028Z,99533.38
2023-04-13T06:28:51.208Z,99534.28
2023-04-13T06:31:21.092Z,99536.94
2023-04-13T06:33:50.443Z,99537.00
2023-04-13T06:36:23.596Z,99546.66
2023-04-13T06:38:55.435Z,99549.31
2023-04-13T06:41:23.731Z,99547.59
2023-04-13T06:43:53.161Z,99547.63
2023-04-13T06:46:29.379Z,99555.53
2023-04-13T06:49:02.698Z,99559.06
2023-04-13T06:51:33.879Z,99556.41
2023-04-13T06:54:02.115Z,99555.53
2023-04-13T06:56:29.777Z,99551.16
2023-04-13T06:59:02.597Z,99545.00
2023-04-13T07:01:33.565Z,99543.22
2023-04-13T07:04:03.986Z,99542.34
2023-04-13T07:06:32.536Z,99543.19
2023-04-13T07:09:01.252Z,99541.44
2023-04-13T07:11:32.962Z,99552.00
2023-04-13T07:14:04.820Z,99535.28
2023-04-13T07:16:32.563Z,99543.19
2023-04-13T07:19:01.082Z,99536.13
2023-04-13T07:21:32.518Z,99545.78
2023-04-13T07:24:03.526Z,99553.69
2023-04-13T07:26:32.738Z,99553.63
2023-04-13T07:29:01.386Z,99551.84
2023-04-13T07:31:35.747Z,99550.94
2023-04-13T07:34:04.141Z,99551.72
2023-04-13T07:36:40.192Z,99548.13
2023-04-13T07:39:12.713Z,99549.81
2023-04-13T07:41:46.441Z,99553.25
2023-04-13T07:44:18.619Z,99556.72
2023-04-13T07:46:53.685Z,99556.66
2023-04-13T07:49:22.940Z,99558.34
2023-04-13T07:51:58.744Z,99567.03
2023-04-13T07:54:29.056Z,99553.69
2023-04-13T07:56:58.307Z,99568.59
2023-04-13T07:59:29.583Z,99564.97
2023-04-13T08:02:03.474Z,99563.13
2023-04-13T08:04:36.930Z,99572.72
2023-04-13T08:07:12.558Z,99575.25
2023-04-13T08:09:41.533Z,99561.91
2023-04-13T08:12:10.938Z,99555.66
2023-04-13T08:14:42.739Z,99561.66
2023-04-13T08:17:13.609Z,99564.25
2023-04-13T08:19:41.983Z,99565.91
2023-04-13T08:22:13.152Z,99571.00
2023-04-13T08:24:41.525Z,99568.16
2023-04-13T08:27:10.625Z,99565.41
2023-04-13T08:29:40.423Z,99573.22
2023-04-13T08:32:09.249Z,99577.41
2023-04-13T08:34:39.972Z,99576.25
2023-04-13T08:37:07.925Z,99579.56
2023-04-13T08:39:37.659Z,99574.84
2023-04-13T08:42:05.949Z,99563.94
2023-04-13T08:44:40.126Z,99575.03
2023-04-13T08:47:10.588Z,99558.03
2023-04-13T08:49:41.752Z,99561.28
2023-04-13T08:52:18.611Z,99566.34
2023-04-13T08:54:52.718Z,99568.63
2023-04-13T08:57:26.475Z,99567.50
2023-04-13T08:59:54.188Z,99572.56
2023-04-13T09:02:27.043Z,99576.13
2023-04-13T09:05:06.484Z,99582.31
2023-04-13T09:07:37.040Z,99579.38
2023-04-13T09:10:16.065Z,99590.41
2023-04-13T09:12:47.904Z,99590.38
2023-04-13T09:15:15.864Z,99601.19
2023-04-13T09:17:51.745Z,99597.75
2023-04-13T09:20:24.409Z,99599.53
2023-04-13T09:22:53.481Z,99612.00
2023-04-13T09:25:22.901Z,99604.06
2023-04-13T09:27:52.035Z,99611.09
2023-04-13T09:30:21.503Z,99617.31
2023-04-13T09:32:49.561Z,99629.72
2023-04-13T09:35:17.282Z,99625.34
2023-04-13T09:37:47.868Z,99632.56
2023-04-13T09:40:19.001Z,99631.63
2023-04-13T09:42:55.826Z,99625.44
2023-04-13T09:45:24.077Z,99629.81
2023-04-13T09:47:53.158Z,99635.84
2023-04-13T09:50:32.270Z,99640.28
2023-04-13T09:53:02.078Z,99635.81
2023-04-13T09:55:39.986Z,99647.25
2023-04-13T09:58:12.498Z,99639.91
2023-04-13T10:00:43.204Z,99637.13
2023-04-13T10:03:12.936Z,99647.00
2023-04-13T10:05:57.758Z,99647.13
2023-04-13T10:11:01.920Z,99659.75
2023-04-13T10:13:36.924Z,99659.84
2023-04-13T10:16:22.700Z,99666.97
2023-04-13T10:19:01.176Z,99667.03
2023-04-13T10:21:33.765Z,99668.84
2023-04-13T10:24:11.311Z,99667.88
2023-04-13T10:26:42.392Z,99666.72
2023-04-13T10:29:14.075Z,99676.38
2023-04-13T10:31:43.187Z,99667.50
2023-04-13T10:34:11.327Z,99671.00
2023-04-13T10:36:41.713Z,99681.53
2023-04-13T10:39:12.476Z,99681.50
2023-04-13T10:41:40.142Z,99679.81
2023-04-13T10:44:09.072Z,99678.88
2023-04-13T10:46:37.152Z,99689.53
2023-04-13T10:49:07.220Z,99693.13
2023-04-13T10:51:41.471Z,99688.72
2023-04-13T10:54:15.071Z,99698.47
2023-04-13T10:56:42.974Z,99694.00
2023-04-13T10:59:10.690Z,99695.63
2023-04-13T11:01:41.481Z,99696.50
2023-04-13T11:04:13.827Z,99693.75
2023-04-13T11:06:44.703Z,99689.34
2023-04-13T11:09:17.031Z,99688.41
2023-04-13T11:11:52.013Z,99695.47
2023-04-13T11:14:22.449Z,99697.13
2023-04-13T11:16:51.420Z,99693.22
2023-04-13T11:19:19.438Z,99700.97
2023-04-13T11:21:54.456Z,99708.78
2023-04-13T11:24:28.312Z,99703.41
2023-04-13T11:26:57.794Z,99700.97
2023-04-13T11:29:29.204Z,99702.84
2023-04-13T11:31:57.666Z,99705.91
2023-04-13T11:34:30.304Z,99703.22
2023-04-13T11:37:02.392Z,99710.31
2023-04-13T11:39:34.660Z,99712.13
2023-04-13T11:42:06.958Z,99713.63
2023-04-13T11:44:39.325Z,99721.66
2023-04-13T11:47:08.930Z,99709.25
2023-04-13T11:49:36.907Z,99715.47
2023-04-13T11:52:04.731Z,99712.94
2023-04-13T11:54:36.126Z,99718.25
2023-04-13T11:57:06.494Z,99721.00
2023-04-13T11:59:36.475Z,99721.97
2023-04-13T12:02:13.444Z,99723.81
2023-04-13T12:04:51.584Z,99724.72
2023-04-13T12:07:19.725Z,99725.50
2023-04-13T12:09:56.832Z,99717.38
2023-04-13T12:20:10.134Z,99720.53
2023-04-13T12:25:20.487Z,99723.97
2023-04-13T12:27:51.060Z,99721.38
2023-04-13T12:30:19.904Z,99723.28
2023-04-13T12:32:48.878Z,99712.63
2023-04-13T12:35:19.274Z,99715.28
2023-04-13T12:37:48.597Z,99718.88
2023-04-13T12:40:18.493Z,99721.19
2023-04-13T12:42:47.152Z,99724.94
2023-04-13T12:45:16.190Z,99720.38
2023-04-13T12:47:44.085Z,99723.09
2023-04-13T12:50:12.916Z,99721.44
2023-04-13T12:52:44.331Z,99716.94
2023-04-13T12:55:12.589Z,99724.03
2023-04-13T12:57:41.691Z,99737.47
2023-04-13T13:00:12.168Z,99734.69
2023-04-13T13:02:40.007Z,99728.22
2023-04-13T13:05:09.458Z,99735.19
2023-04-13T13:07:37.195Z,99746.72
2023-04-13T13:10:14.923Z,99739.66
2023-04-13T13:12:50.969Z,99751.63
2023-04-13T13:15:18.900Z,99756.53
2023-04-13T13:17:46.679Z,99740.47
2023-04-13T13:20:15.394Z,99753.84
2023-04-13T13:22:43.647Z,99751.28
2023-04-13T13:25:11.464Z,99744.38
2023-04-13T13:28:05.373Z,99755.94
2023-04-13T13:30:28.642Z,99755.97
2023-04-13T13:32:56.272Z,99755.97
2023-04-13T13:35:24.118Z,99754.75
2023-04-13T13:37:51.724Z,99759.91
2023-04-13T13:40:19.357Z,99759.00
2023-04-13T13:42:51.115Z,99757.25
2023-04-13T13:45:19.329Z,99760.13
2023-04-13T13:47:52.013Z,99757.66
2023-04-13T13:50:21.553Z,99762.34
2023-04-13T13:53:02.954Z,99765.22
2023-04-13T13:55:34.386Z,99758.31
2023-04-13T13:58:03.389Z,99754.75
2023-04-13T14:00:31.274Z,99757.47
2023-04-13T14:03:00.762Z,99760.22
2023-04-13T14:05:29.067Z,99766.47
2023-04-13T14:07:57.387Z,99771.00
2023-04-13T14:10:25.752Z,99765.69
2023-04-13T14:12:55.965Z,99769.31
2023-04-13T14:15:24.098Z,99771.16
2023-04-13T14:18:06.488Z,99777.47
2023-04-13T14:20:40.155Z,99782.88
2023-04-13T14:23:09.091Z,99780.25
2023-04-13T14:25:37.501Z,99782.97
2023-04-13T14:28:05.306Z,99782.19
2023-04-13T14:30:33.051Z,99782.28
2023-04-13T14:33:01.855Z,99792.16
2023-04-13T14:35:30.290Z,99789.50
2023-04-13T14:38:00.429Z,99784.22
2023-04-13T14:40:28.343Z,99784.25
2023-04-13T14:42:55.995Z,99785.16
2023-04-13T14:45:24.210Z,99791.47
2023-04-13T14:47:54.600Z,99795.09
2023-04-13T14:50:23.590Z,99801.38
2023-04-13T14:52:52.337Z,99799.78
2023-04-13T14:55:21.867Z,99805.22
2023-04-13T14:57:50.073Z,99808.06
2023-04-13T15:00:22.039Z,99799.25
2023-04-13T15:02:51.251Z,99814.34
2023-04-13T15:05:21.264Z,99814.47
2023-04-13T15:07:50.882Z,99818.91
2023-04-13T15:10:19.164Z,99824.22
2023-04-13T15:12:48.452Z,99828.63
2023-04-13T15:15:16.260Z,99830.44
2023-04-13T15:17:44.128Z,99831.31
2023-04-13T15:20:12.353Z,99830.47
2023-04-13T15:22:40.534Z,99836.69
2023-04-13T15:25:10.648Z,99834.09
2023-04-13T15:27:38.332Z,99836.81
2023-04-13T15:30:10.047Z,99846.63
2023-04-13T15:32:37.753Z,99841.34
2023-04-13T15:35:07.580Z,99853.84
2023-04-13T15:37:35.352Z,99855.78
2023-04-13T15:40:07.660Z,99856.06
2023-04-13T15:42:36.142Z,99859.97
2023-04-13T15:45:05.347Z,99859.38
2023-04-13T15:47:34.386Z,99864.00
2023-04-13T15:50:02.109Z,99858.91
2023-04-13T15:52:30.260Z,99867.03
2023-04-13T15:54:57.924Z,99865.38
2023-04-13T15:57:25.720Z,99863.75
2023-04-13T15:59:53.502Z,99869.19
2023-04-13T16:02:21.412Z,99876.38
2023-04-13T16:04:51.017Z,99872.25
2023-04-13T16:07:19.979Z,99873.31
2023-04-13T16:09:51.761Z,99870.69
2023-04-13T16:12:20.149Z,99877.81
2023-04-13T16:14:49.607Z,99880.38
2023-04-13T16:17:17.215Z,99881.22
2023-04-13T16:19:46.692Z,99889.16
2023-04-13T16:22:17.052Z,99888.22
2023-04-13T16:24:44.646Z,99889.88
2023-04-13T16:27:12.290Z,99894.19
2023-04-13T16:29:41.761Z,99897.72
2023-04-13T16:32:09.419Z,99892.31
2023-04-13T16:34:37.056Z,99895.78
2023-04-13T16:37:04.735Z,99898.41
2023-04-13T16:39:33.789Z,99896.69
2023-04-13T16:42:01.806Z,99909.09
2023-04-13T16:44:29.426Z,99902.91
2023-04-13T16:46:57.180Z,99909.13
2023-04-13T16:49:24.844Z,99907.41
2023-04-13T16:51:52.433Z,99914.53
2023-04-13T16:54:21.146Z,99909.25
2023-04-13T16:56:50.368Z,99917.25
2023-04-13T16:59:17.991Z,99917.31
2023-04-13T17:01:45.848Z,99924.44
2023-04-13T17:04:13.753Z,99922.72
2023-04-13T17:06:41.366Z,99928.09
2023-04-13T17:09:09.144Z,99926.34
2023-04-13T17:11:36.761Z,99922.88
2023-04-13T17:14:05.811Z,99923.00
2023-04-13T17:16:33.464Z,99938.09
2023-04-13T17:19:01.498Z,99934.63
2023-04-13T17:21:29.663Z,99936.47
2023-04-13T17:23:57.276Z,99933.91
2023-04-13T17:26:24.839Z,99928.69
2023-04-13T17:28:52.467Z,99932.34
2023-04-13T17:31:22.002Z,99930.69
2023-04-13T17:33:51.066Z,99938.72
2023-04-13T17:36:18.956Z,99945.91
2023-04-13T17:38:46.535Z,99936.31
2023-04-13T17:41:14.165Z,99929.34
2023-04-13T17:43:42.128Z,99931.19
2023-04-13T17:46:09.906Z,99934.78
2023-04-13T17:48:39.439Z,99934.88
2023-04-13T17:51:11.366Z,99942.03
2023-04-13T17:53:39.328Z,99937.72
2023-04-13T17:56:07.354Z,99949.31
2023-04-13T17:58:35.438Z,99948.50
2023-04-13T18:01:08.118Z,99960.09
2023-04-13T18:03:36.346Z,99970.78
2023-04-13T18:06:06.344Z,99978.81
2023-04-13T18:08:34.158Z,99985.09
2023-04-13T18:11:02.542Z,99994.88
2023-04-13T18:13:31.393Z,99999.38
2023-04-13T18:15:59.249Z,100005.63
2023-04-13T18:18:27.177Z,100011.00
2023-04-13T18:20:54.960Z,100010.16
2023-04-13T18:23:24.384Z,100018.19
2023-04-13T18:25:52.898Z,100020.00
2023-04-13T18:28:20.824Z,100014.78
2023-04-13T18:30:48.932Z,100013.03
2023-04-13T18:33:16.653Z,100014.84
2023-04-13T18:35:45.659Z,100022.84
2023-04-13T18:38:13.481Z,100025.50
2023-04-13T18:40:42.609Z,100030.81
2023-04-13T18:43:10.438Z,100037.00
2023-04-13T18:45:38.135Z,100047.59
2023-04-13T18:48:06.472Z,100047.63
2023-04-13T18:50:34.177Z,100055.56
2023-04-13T18:53:01.824Z,100055.56
2023-04-13T18:55:29.484Z,100071.47
2023-04-13T18:57:58.478Z,100065.31
2023-04-13T19:00:26.322Z,100065.31
2023-04-13T19:02:54.069Z,100071.50
2023-04-13T19:05:21.805Z,100071.50
2023-04-13T19:07:57.237Z,100080.31
2023-04-13T19:10:25.516Z,100082.06
2023-04-13T19:12:53.447Z,100083.84
2023-04-13T19:15:22.695Z,100091.78
2023-04-13T19:17:51.985Z,100094.44
2023-04-13T19:20:19.922Z,100093.56
2023-04-13T19:22:47.508Z,100097.09
2023-04-13T19:25:15.415Z,100098.88
2023-04-13T19:27:44.640Z,100104.16
2023-04-13T19:30:13.076Z,100099.78
2023-04-13T19:32:44.215Z,100102.41
2023-04-13T19:35:12.968Z,100104.16
2023-04-13T19:37:40.925Z,100105.94
2023-04-13T19:40:13.191Z,100116.53
2023-04-13T19:42:42.373Z,100108.59
2023-04-13T19:45:10.753Z,100106.84
2023-04-13T19:47:39.437Z,100098.91
2023-04-13T19:50:11.322Z,100097.13
2023-04-13T19:52:39.583Z,100098.03
2023-04-13T19:55:10.426Z,100090.97
2023-04-13T19:57:42.318Z,100091.88
2023-04-13T20:00:19.136Z,100096.28
2023-04-13T20:02:49.730Z,100090.09
2023-04-13T20:05:20.564Z,100088.38
2023-04-13T20:07:48.269Z,100088.38
2023-04-13T20:10:15.876Z,100098.94
2023-04-13T20:12:43.509Z,100093.66
2023-04-13T20:15:11.615Z,100092.75
2023-04-13T20:17:39.296Z,100103.34
2023-04-13T20:20:09.986Z,100102.47
2023-04-13T20:22:39.472Z,100089.25
2023-04-13T20:25:09.274Z,100094.53
2023-04-13T20:27:41.671Z,100097.16
2023-04-13T20:30:11.046Z,100086.63
2023-04-13T20:32:38.889Z,100083.97
2023-04-13T20:35:07.291Z,100084.84
2023-04-13T20:37:34.902Z,100078.69
2023-04-13T20:40:06.735Z,100088.38
2023-04-13T20:42:34.313Z,100080.47
2023-04-13T20:45:04.311Z,100083.97
2023-04-13T20:47:32.063Z,100084.84
2023-04-13T20:50:00.133Z,100094.56
2023-04-13T20:52:29.928Z,100096.34
2023-04-13T20:54:58.271Z,100095.47
2023-04-13T20:57:27.530Z,100094.56
2023-04-13T20:59:55.446Z,100098.09
2023-04-13T21:02:23.375Z,100102.50
2023-04-13T21:04:51.080Z,100100.75
2023-04-13T21:07:18.974Z,100107.78
2023-04-13T21:09:46.806Z,100108.69
2023-04-13T21:12:14.462Z,100095.47
2023-04-13T21:14:43.421Z,100107.78
2023-04-13T21:17:11.715Z,100108.69
2023-04-13T21:19:39.309Z,100113.06
2023-04-13T21:22:07.113Z,100106.91
2023-04-13T21:24:34.765Z,100106.91
2023-04-13T21:27:02.846Z,100115.75
2023-04-13T21:29:30.444Z,100102.50
2023-04-13T21:32:00.056Z,100105.16
2023-04-13T21:34:27.932Z,100106.91
2023-04-13T21:36:55.664Z,100107.81
2023-04-13T21:39:23.569Z,100090.16
2023-04-13T21:41:51.211Z,100094.59
2023-04-13T21:44:29.198Z,100108.66
2023-04-13T21:46:59.323Z,100098.09
2023-04-13T21:49:27.477Z,100097.22
2023-04-13T21:51:55.118Z,100097.22
2023-04-13T21:54:22.829Z,100103.38
2023-04-13T21:56:50.489Z,100101.59
2023-04-13T21:59:18.091Z,100104.25
2023-04-13T22:01:46.917Z,100101.59
2023-04-13T22:04:16.358Z,100108.66
2023-04-13T22:06:44.047Z,100106.94
2023-04-13T22:09:12.329Z,100113.94
2023-04-13T22:11:40.898Z,100116.59
2023-04-13T22:14:08.633Z,100113.06
2023-04-13T22:16:36.421Z,100117.50
2023-04-13T22:19:04.370Z,100118.34
2023-04-13T22:21:35.479Z,100119.25
2023-04-13T22:24:03.237Z,100122.75
2023-04-13T22:26:31.059Z,100121.03
2023-04-13T22:28:59.342Z,100127.19
2023-04-13T22:31:27.246Z,100126.31
2023-04-13T22:33:54.894Z,100128.06
2023-04-13T22:36:22.542Z,100124.53
2023-04-13T22:38:51.994Z,100124.53
2023-04-13T22:41:19.612Z,100124.53
2023-04-13T22:43:47.212Z,100127.19
2023-04-13T22:46:14.937Z,100128.91
2023-04-13T22:48:42.582Z,100121.88
2023-04-13T22:51:10.178Z,100119.22
2023-04-13T22:53:37.790Z,100116.59
2023-04-13T22:56:07.069Z,100119.25
2023-04-13T22:58:34.822Z,100112.19
2023-04-13T23:01:02.744Z,100112.16
2023-04-13T23:03:30.567Z,100107.78
2023-04-13T23:05:58.253Z,100099.84
2023-04-13T23:08:25.870Z,100096.31
2023-04-13T23:10:53.475Z,100094.53
2023-04-13T23:13:22.471Z,100093.66
2023-04-13T23:15:50.059Z,100095.41
2023-04-13T23:18:17.709Z,100091.91
2023-04-13T23:20:45.413Z,100100.69
2023-04-13T23:23:13.002Z,100105.97
2023-04-13T23:25:40.891Z,100116.50
2023-04-13T23:28:08.489Z,100118.28
2023-04-13T23:30:37.426Z,100126.19
2023-04-13T23:33:05.103Z,100125.31
2023-04-13T23:35:32.754Z,100134.09
2023-04-13T23:38:00.864Z,100135.88
2023-04-13T23:40:28.618Z,100135.84
2023-04-13T23:42:56.340Z,100130.56
2023-04-13T23:45:24.927Z,100144.69
2023-04-13T23:47:54.069Z,100150.81
2023-04-13T23:50:23.523Z,100156.97
2023-04-13T23:52:51.761Z,100153.47
2023-04-13T23:55:19.617Z,100149.94
2023-04-13T23:57:47.683Z,100152.59
